Time;durP1;ratioP1;P1;durP2;ratioP2;P2;SDS_P1;SDS_P2;PMS_P1;PMS_P2;Temp;Humidity;BMP_temperature;BMP_pressure;BME280_temperature;BME280_humidity;BME280_pressure;Samples;Min_cycle;Max_cycle;Signal;HPM_P1;HPM_P2
2022/05/07 00:00:00;;;;;;;334.20;132.03;;;;;;;13.41;62.02;100244.75;338462;29;1303;-76
2022/05/07 00:00:11;;;;;;;332.20;131.85;;;;;;;13.45;62.16;100250.69;340983;29;1437;-76
2022/05/07 00:00:22;;;;;;;328.48;131.90;;;;;;;13.42;62.19;100250.84;340828;29;1344;-76
2022/05/07 00:00:32;;;;;;;327.58;131.57;;;;;;;13.32;62.02;100250.38;338480;29;1539;-77
2022/05/07 00:00:43;;;;;;;329.10;130.63;;;;;;;13.24;62.60;100250.69;335846;29;811;-76
2022/05/07 00:00:54;;;;;;;331.33;128.53;;;;;;;13.22;62.86;100249.06;338452;29;1239;-77
2022/05/07 00:01:04;;;;;;;335.73;131.23;;;;;;;13.25;62.52;100243.66;339824;29;846;-76
2022/05/07 00:01:14;;;;;;;338.47;133.10;;;;;;;13.25;62.54;100251.56;339729;29;914;-76
2022/05/07 00:01:25;;;;;;;335.90;133.02;;;;;;;13.27;62.79;100241.84;337141;29;1214;-76
2022/05/07 00:01:35;;;;;;;331.73;130.17;;;;;;;13.29;62.57;100248.75;335656;29;1620;-76
2022/05/07 00:01:45;;;;;;;330.17;129.90;;;;;;;13.35;62.46;100250.25;339407;29;1354;-76
2022/05/07 00:01:56;;;;;;;332.77;131.27;;;;;;;13.38;62.55;100252.75;338539;29;1023;-76
2022/05/07 00:02:07;;;;;;;331.40;131.77;;;;;;;13.40;62.41;100250.91;337188;29;894;-76
2022/05/07 00:02:18;;;;;;;331.27;131.60;;;;;;;13.45;62.35;100251.56;338497;29;794;-76
2022/05/07 00:02:29;;;;;;;329.13;130.32;;;;;;;13.47;62.24;100254.97;337092;29;1469;-76
2022/05/07 00:02:39;;;;;;;330.42;130.82;;;;;;;13.41;62.29;100250.00;339663;29;1273;-76
2022/05/07 00:02:50;;;;;;;329.40;131.17;;;;;;;13.35;62.27;100250.25;338365;29;1263;-76
2022/05/07 00:03:00;;;;;;;328.73;131.82;;;;;;;13.26;62.37;100246.22;338606;29;835;-76
2022/05/07 00:03:11;;;;;;;329.77;132.60;;;;;;;13.34;62.44;100253.81;333784;29;4872;-76
2022/05/07 00:03:22;;;;;;;329.98;131.85;;;;;;;13.39;62.55;100257.09;338001;29;3544;-76
2022/05/07 00:03:32;;;;;;;335.75;133.05;;;;;;;13.36;62.33;100251.13;339762;29;1419;-76
2022/05/07 00:03:43;;;;;;;332.92;130.65;;;;;;;13.33;62.58;100262.59;335876;29;1024;-76
2022/05/07 00:03:53;;;;;;;334.93;130.33;;;;;;;13.29;62.69;100247.88;334661;29;1206;-76
2022/05/07 00:04:04;;;;;;;329.53;127.90;;;;;;;13.32;62.83;100255.63;335812;29;1293;-76
2022/05/07 00:04:14;;;;;;;329.98;128.02;;;;;;;13.32;62.69;100255.63;338467;29;881;-76
2022/05/07 00:04:25;;;;;;;329.10;128.73;;;;;;;13.35;62.60;100250.25;338499;29;1198;-76
2022/05/07 00:04:35;;;;;;;328.40;129.02;;;;;;;13.38;62.66;100247.50;335351;29;1481;-76
2022/05/07 00:04:46;;;;;;;329.05;129.52;;;;;;;13.40;62.72;100247.44;338323;29;2084;-76
2022/05/07 00:04:56;;;;;;;328.83;129.47;;;;;;;13.41;62.82;100247.38;338441;29;1225;-76
2022/05/07 00:05:07;;;;;;;328.58;130.18;;;;;;;13.43;62.53;100253.38;337194;29;942;-76
2022/05/07 00:05:19;;;;;;;328.88;130.05;;;;;;;13.41;62.33;100247.38;338382;29;1362;-76
2022/05/07 00:05:29;;;;;;;327.90;129.13;;;;;;;13.41;62.40;100260.53;338397;29;945;-75
2022/05/07 00:05:40;;;;;;;328.53;129.57;;;;;;;13.37;62.62;100253.69;341082;29;790;-75
2022/05/07 00:05:50;;;;;;;328.57;129.87;;;;;;;13.42;62.53;100251.72;337048;29;1203;-75
2022/05/07 00:06:01;;;;;;;330.33;130.23;;;;;;;13.47;62.38;100256.75;337118;29;1366;-76
2022/05/07 00:06:11;;;;;;;329.80;130.80;;;;;;;13.47;62.87;100249.72;339659;29;1281;-76
2022/05/07 00:06:22;;;;;;;328.88;131.27;;;;;;;13.45;62.31;100254.19;338497;29;1476;-76
2022/05/07 00:06:32;;;;;;;331.37;132.70;;;;;;;13.37;62.38;100253.69;336609;29;1861;-76
2022/05/07 00:06:42;;;;;;;330.27;131.65;;;;;;;13.39;62.51;100256.25;335801;29;1301;-76
2022/05/07 00:06:53;;;;;;;327.33;130.93;;;;;;;13.36;62.36;100249.34;335846;29;1623;-76
2022/05/07 00:07:06;;;;;;;324.80;130.18;;;;;;;13.33;62.51;100254.72;336981;29;1467;-76
2022/05/07 00:07:16;;;;;;;327.63;129.95;;;;;;;13.27;62.83;100252.34;338503;29;1585;-76
2022/05/07 00:07:27;;;;;;;331.65;130.52;;;;;;;13.30;62.75;100257.47;337260;29;946;-76
2022/05/07 00:07:37;;;;;;;332.23;131.97;;;;;;;13.34;62.79;100255.56;337264;29;902;-76
2022/05/07 00:07:48;;;;;;;330.48;130.55;;;;;;;13.36;62.80;100257.22;337216;29;963;-76
2022/05/07 00:07:58;;;;;;;328.27;129.37;;;;;;;13.38;62.69;100250.13;338486;29;1298;-76
2022/05/07 00:08:09;;;;;;;328.90;129.07;;;;;;;13.42;62.62;100258.75;337017;29;1483;-76
2022/05/07 00:08:19;;;;;;;329.60;130.30;;;;;;;13.46;62.37;100258.53;335900;29;1324;-76
2022/05/07 00:08:30;;;;;;;330.77;130.60;;;;;;;13.44;62.51;100239.31;335970;29;1075;-76
2022/05/07 00:08:40;;;;;;;329.42;129.32;;;;;;;13.48;62.26;100251.41;337194;29;1374;-76
2022/05/07 00:08:51;;;;;;;328.88;129.85;;;;;;;13.50;62.43;100249.59;339649;29;1103;-76
2022/05/07 00:09:01;;;;;;;329.27;131.57;;;;;;;13.55;62.14;100252.88;339993;29;1349;-76
2022/05/07 00:09:12;;;;;;;329.13;132.27;;;;;;;13.56;62.30;100249.31;337106;29;1915;-76
2022/05/07 00:09:24;;;;;;;327.23;131.20;;;;;;;13.60;62.05;100253.53;334741;29;969;-76
2022/05/07 00:09:35;;;;;;;326.88;131.82;;;;;;;13.62;62.01;100246.44;340147;29;921;-76
2022/05/07 00:09:46;;;;;;;327.85;132.00;;;;;;;13.64;62.01;100249.00;339194;29;1437;-76
2022/05/07 00:09:56;;;;;;;326.83;130.27;;;;;;;13.67;62.16;100250.66;341874;28;849;-76
2022/05/07 00:10:07;;;;;;;325.80;129.73;;;;;;;13.64;62.20;100252.47;337336;29;1597;-76
2022/05/07 00:10:18;;;;;;;325.00;129.77;;;;;;;13.63;61.97;100249.91;337389;29;1032;-76
2022/05/07 00:10:28;;;;;;;325.47;131.33;;;;;;;13.59;62.32;100254.44;339982;29;790;-76
2022/05/07 00:10:42;;;;;;;324.70;131.40;;;;;;;13.60;62.18;100248.28;338733;29;1055;-76
2022/05/07 00:10:52;;;;;;;324.58;129.13;;;;;;;13.59;61.98;100245.72;338756;29;862;-76
2022/05/07 00:11:04;;;;;;;324.50;127.80;;;;;;;13.63;61.86;100244.66;338869;29;999;-76
2022/05/07 00:11:20;;;;;;;327.10;129.32;;;;;;;13.62;62.05;100243.81;335966;29;1635;-76
2022/05/07 00:11:30;;;;;;;329.20;131.55;;;;;;;13.67;62.04;100256.75;338582;29;1804;-76
2022/05/07 00:11:41;;;;;;;328.10;131.23;;;;;;;13.59;61.85;100243.94;338940;29;888;-76
2022/05/07 00:11:51;;;;;;;329.13;130.70;;;;;;;13.55;62.11;100250.25;338461;29;1245;-76
2022/05/07 00:12:02;;;;;;;329.98;131.25;;;;;;;13.54;62.48;100252.94;338885;29;834;-76
2022/05/07 00:12:13;;;;;;;331.40;132.73;;;;;;;13.53;62.00;100246.81;334778;29;1274;-76
2022/05/07 00:12:23;;;;;;;328.70;132.75;;;;;;;13.56;62.09;100253.72;335446;29;3987;-76
2022/05/07 00:12:33;;;;;;;330.97;135.30;;;;;;;13.59;62.05;100253.59;339853;29;3238;-76
2022/05/07 00:12:44;;;;;;;331.63;135.38;;;;;;;13.56;62.16;100248.47;339758;29;1784;-76
2022/05/07 00:12:54;;;;;;;333.40;135.73;;;;;;;13.51;62.12;100250.44;338704;28;1703;-76
2022/05/07 00:13:05;;;;;;;333.90;133.15;;;;;;;13.43;62.33;100253.38;335991;29;901;-76
2022/05/07 00:13:15;;;;;;;331.90;131.77;;;;;;;13.28;62.63;100248.78;338870;29;917;-76
2022/05/07 00:13:26;;;;;;;331.00;131.38;;;;;;;13.36;62.71;100254.59;339911;29;1366;-76
2022/05/07 00:13:36;;;;;;;328.30;130.70;;;;;;;13.39;62.58;100246.59;341651;29;882;-76
2022/05/07 00:13:48;;;;;;;328.98;131.60;;;;;;;13.43;62.44;100253.38;338734;29;791;-77
2022/05/07 00:13:58;;;;;;;329.60;132.57;;;;;;;13.44;62.67;100248.97;335995;29;1335;-76
2022/05/07 00:14:08;;;;;;;331.55;134.55;;;;;;;13.43;62.43;100248.13;339964;29;1756;-76
2022/05/07 00:14:19;;;;;;;329.73;133.07;;;;;;;13.41;62.48;100257.88;336134;29;1209;-76
2022/05/07 00:14:29;;;;;;;327.45;131.40;;;;;;;13.37;62.69;100252.81;333619;29;918;-76
2022/05/07 00:14:40;;;;;;;327.00;130.23;;;;;;;13.34;62.67;100252.94;338835;29;1662;-76
2022/05/07 00:14:50;;;;;;;328.13;129.98;;;;;;;13.28;62.87;100254.06;339717;29;906;-76
2022/05/07 00:15:00;;;;;;;331.33;130.87;;;;;;;13.26;62.79;100250.63;337180;29;1283;-76
2022/05/07 00:15:11;;;;;;;331.50;131.73;;;;;;;13.23;62.89;100258.66;337141;29;1259;-76
2022/05/07 00:15:22;;;;;;;331.90;133.05;;;;;;;13.20;63.20;100253.50;338468;29;1385;-76
2022/05/07 00:15:32;;;;;;;329.48;132.98;;;;;;;13.17;63.20;100246.59;338490;29;973;-76
2022/05/07 00:18:01;;;;;;;327.77;130.82;;;;;;;13.18;63.39;100252.72;339672;29;1198;-76
2022/05/07 00:18:12;;;;;;;323.10;127.10;;;;;;;13.20;63.58;100245.63;339824;29;916;-76
2022/05/07 00:18:22;;;;;;;323.90;128.02;;;;;;;13.21;63.87;100248.19;338557;29;858;-76
2022/05/07 00:18:32;;;;;;;325.83;129.75;;;;;;;13.23;63.35;100242.88;341015;29;1213;-76
2022/05/07 00:18:43;;;;;;;326.30;129.90;;;;;;;13.25;63.47;100247.16;338436;29;882;-76
2022/05/07 00:18:53;;;;;;;326.27;130.25;;;;;;;13.30;63.29;100246.97;340856;29;1531;-76
2022/05/07 00:19:03;;;;;;;328.47;133.03;;;;;;;13.31;63.27;100246.91;337147;29;1181;-76
2022/05/07 00:19:14;;;;;;;330.85;133.93;;;;;;;13.32;63.31;100245.97;335938;29;878;-76
2022/05/07 00:19:24;;;;;;;331.73;133.40;;;;;;;13.32;63.44;100245.13;335963;29;1295;-76
2022/05/07 00:19:35;;;;;;;330.42;131.00;;;;;;;13.29;63.18;100240.00;337268;29;822;-76
2022/05/07 00:19:46;;;;;;;328.97;131.37;;;;;;;13.29;63.33;100245.25;335657;29;1374;-76
2022/05/07 00:19:56;;;;;;;330.17;131.85;;;;;;;13.29;63.92;100242.63;337240;29;874;-76
2022/05/07 00:20:09;;;;;;;327.88;130.55;;;;;;;13.34;63.32;100247.69;338388;29;890;-76
2022/05/07 00:20:19;;;;;;;327.58;130.25;;;;;;;13.34;63.32;100248.53;338367;29;1142;-76
2022/05/07 00:20:30;;;;;;;328.57;130.60;;;;;;;13.35;63.28;100250.25;335893;29;962;-76
2022/05/07 00:20:40;;;;;;;330.92;132.30;;;;;;;13.38;62.86;100244.00;337032;29;1344;-76
2022/05/07 00:20:50;;;;;;;329.30;131.68;;;;;;;13.40;62.80;100243.03;338000;29;1769;-76
2022/05/07 00:21:01;;;;;;;330.43;132.70;;;;;;;13.42;63.01;100246.44;338291;29;1382;-76
2022/05/07 00:21:11;;;;;;;329.75;130.65;;;;;;;13.42;63.00;100241.19;338471;29;755;-76
2022/05/07 00:21:22;;;;;;;330.33;130.67;;;;;;;13.46;62.88;100240.13;339729;29;1200;-75
2022/05/07 00:21:32;;;;;;;329.90;130.27;;;;;;;13.46;62.94;100241.88;338488;29;5333;-76
2022/05/07 00:21:42;;;;;;;330.08;131.75;;;;;;;13.48;62.87;100240.91;341765;28;3200;-76
2022/05/07 00:21:54;;;;;;;332.97;133.47;;;;;;;13.46;62.66;100237.47;337074;29;1271;-75
2022/05/07 00:22:05;;;;;;;331.45;134.98;;;;;;;13.39;62.80;100240.47;336614;29;3322;-75
2022/05/07 00:22:15;;;;;;;333.07;135.27;;;;;;;13.38;63.03;100238.75;339618;29;1217;-76
2022/05/07 00:22:26;;;;;;;328.85;133.90;;;;;;;13.38;63.07;100249.28;339996;29;1546;-76
2022/05/07 00:22:36;;;;;;;329.10;130.95;;;;;;;13.36;63.29;100241.44;335794;29;1579;-76
2022/05/07 00:22:46;;;;;;;327.63;131.07;;;;;;;13.33;63.17;100249.47;335835;29;795;-76
2022/05/07 00:22:57;;;;;;;328.60;131.87;;;;;;;13.32;63.41;100245.97;338457;29;831;-76
2022/05/07 00:23:07;;;;;;;328.93;133.17;;;;;;;13.31;63.49;100246.91;337584;29;1276;-76
2022/05/07 00:23:18;;;;;;;326.67;131.23;;;;;;;13.33;63.56;100246.84;340299;29;807;-76
2022/05/07 00:23:30;;;;;;;327.33;130.75;;;;;;;13.35;63.52;100237.09;338440;29;874;-76
2022/05/07 00:23:41;;;;;;;328.40;130.50;;;;;;;13.38;63.27;100251.91;335797;29;961;-76
2022/05/07 00:23:52;;;;;;;329.30;130.88;;;;;;;13.39;63.08;100241.31;337140;29;1035;-76
2022/05/07 00:24:02;;;;;;;329.20;131.63;;;;;;;13.42;63.34;100243.81;337072;29;1540;-76
2022/05/07 00:24:13;;;;;;;327.45;131.50;;;;;;;13.43;63.12;100237.63;339665;29;1611;-76
2022/05/07 00:24:24;;;;;;;328.27;130.97;;;;;;;13.46;62.84;100240.13;338328;29;1226;-76
2022/05/07 00:24:34;;;;;;;327.30;130.55;;;;;;;13.49;62.88;100242.63;338643;29;886;-76
2022/05/07 00:24:44;;;;;;;329.20;131.90;;;;;;;13.51;62.81;100243.41;337868;29;1416;-76
2022/05/07 00:24:55;;;;;;;327.57;132.43;;;;;;;13.51;62.88;100239.91;338278;29;1446;-76
2022/05/07 00:25:05;;;;;;;326.93;131.23;;;;;;;13.54;62.88;100245.91;337196;29;968;-76
2022/05/07 00:25:16;;;;;;;325.92;131.02;;;;;;;13.50;62.73;100239.06;338367;29;1245;-76
2022/05/07 00:25:26;;;;;;;326.93;131.87;;;;;;;13.43;62.24;100236.78;338527;29;996;-76
2022/05/07 00:25:37;;;;;;;327.63;133.23;;;;;;;13.38;63.21;100244.00;340881;29;1967;-76
2022/05/07 00:25:47;;;;;;;329.90;132.88;;;;;;;13.33;63.35;100244.22;336769;29;2017;-76
2022/05/07 00:25:58;;;;;;;332.13;133.43;;;;;;;13.33;63.27;100249.47;335773;29;1326;-76
2022/05/07 00:26:09;;;;;;;333.15;132.65;;;;;;;13.29;63.15;100240.84;335855;29;1250;-76
2022/05/07 00:26:19;;;;;;;330.57;132.03;;;;;;;13.28;63.31;100248.78;337068;29;1365;-76
2022/05/07 00:26:29;;;;;;;328.23;128.37;;;;;;;13.22;63.45;100239.41;334388;29;1482;-76
2022/05/07 00:26:40;;;;;;;330.17;130.03;;;;;;;13.27;63.55;100247.09;337199;29;824;-76
2022/05/07 00:26:51;;;;;;;331.67;129.68;;;;;;;13.29;63.35;100246.09;338580;29;716;-76
2022/05/07 00:27:01;;;;;;;332.25;131.90;;;;;;;13.30;63.33;100245.19;337762;29;1205;-76
2022/05/07 00:27:13;;;;;;;331.07;132.17;;;;;;;13.29;63.31;100248.75;338511;29;1276;-76
2022/05/07 00:27:24;;;;;;;327.83;131.77;;;;;;;13.27;63.42;100241.84;338561;29;990;-76
2022/05/07 00:27:35;;;;;;;326.52;130.82;;;;;;;13.27;63.36;100247.09;337162;29;1388;-76
2022/05/07 00:27:45;;;;;;;326.45;130.43;;;;;;;13.31;63.15;100244.28;338026;29;1478;-76
2022/05/07 00:27:56;;;;;;;330.40;132.70;;;;;;;13.32;63.27;100245.13;337006;29;1267;-76
2022/05/07 00:28:06;;;;;;;331.03;133.47;;;;;;;13.36;63.19;100236.19;335710;29;937;-76
2022/05/07 00:28:16;;;;;;;329.63;133.23;;;;;;;13.31;63.10;100244.28;338358;29;1287;-76
2022/05/07 00:28:27;;;;;;;330.90;132.80;;;;;;;13.25;63.50;100238.41;339738;29;1273;-76
2022/05/07 00:28:37;;;;;;;332.63;132.17;;;;;;;13.22;63.26;100235.91;338396;29;829;-76
2022/05/07 00:28:48;;;;;;;334.38;132.40;;;;;;;13.23;63.63;100240.25;337184;29;1218;-76
2022/05/07 00:28:58;;;;;;;333.50;132.57;;;;;;;13.22;63.38;100235.91;338282;29;1711;-76
2022/05/07 00:29:08;;;;;;;332.23;131.20;;;;;;;13.23;63.41;100235.00;339453;29;1308;-76
2022/05/07 00:29:19;;;;;;;329.67;129.87;;;;;;;13.28;63.56;100240.91;338289;29;1915;-76
2022/05/07 00:29:29;;;;;;;326.15;128.57;;;;;;;13.27;63.29;100236.56;336977;29;1450;-76
2022/05/07 00:29:40;;;;;;;325.67;130.13;;;;;;;13.28;63.39;100235.66;336954;29;1654;-76
2022/05/07 00:29:50;;;;;;;326.83;131.60;;;;;;;13.27;63.21;100236.56;338132;29;1416;-76
2022/05/07 00:30:00;;;;;;;328.38;132.02;;;;;;;13.28;63.66;100243.53;338342;29;1305;-76
2022/05/07 00:30:11;;;;;;;328.10;130.60;;;;;;;13.33;63.92;100241.56;339836;29;814;-76
2022/05/07 00:30:21;;;;;;;327.27;127.78;;;;;;;13.35;63.40;100239.75;336973;29;1419;-76
2022/05/07 00:30:32;;;;;;;325.47;127.87;;;;;;;13.33;63.64;100231.06;340367;29;1610;-76
2022/05/07 00:30:42;;;;;;;327.23;130.13;;;;;;;13.25;63.66;100243.66;336307;29;5397;-76
2022/05/07 00:30:53;;;;;;;329.08;132.55;;;;;;;13.19;63.69;100246.56;339089;29;5961;-76
2022/05/07 00:31:04;;;;;;;334.77;134.47;;;;;;;13.20;64.06;100240.38;336062;29;1178;-76
2022/05/07 00:31:14;;;;;;;338.70;133.63;;;;;;;13.21;64.09;100248.19;336808;29;1888;-76
2022/05/07 00:31:24;;;;;;;339.67;134.50;;;;;;;13.21;64.10;100242.94;338296;29;3602;-76
2022/05/07 00:31:35;;;;;;;334.30;132.45;;;;;;;13.23;63.57;100235.00;339778;29;873;-76
2022/05/07 00:31:45;;;;;;;330.90;132.50;;;;;;;13.24;63.78;100239.31;337169;29;1386;-76
2022/05/07 00:31:56;;;;;;;329.15;131.82;;;;;;;13.21;64.11;100236.81;335825;29;942;-76
2022/05/07 00:32:07;;;;;;;328.60;131.07;;;;;;;13.20;63.74;100237.75;335974;29;890;-76
2022/05/07 00:32:17;;;;;;;329.33;130.75;;;;;;;13.21;63.52;100236.81;338601;29;1308;-76
2022/05/07 00:32:28;;;;;;;330.02;130.02;;;;;;;13.17;63.92;100235.25;336574;29;1203;-76
2022/05/07 00:32:38;;;;;;;330.10;130.53;;;;;;;13.17;63.84;100235.25;337212;29;921;-76
2022/05/07 00:32:49;;;;;;;329.85;131.23;;;;;;;13.14;63.85;100235.34;335882;29;1239;-76
2022/05/07 00:32:59;;;;;;;327.87;128.87;;;;;;;13.14;64.08;100235.34;335885;29;807;-76
2022/05/07 00:33:09;;;;;;;328.38;127.13;;;;;;;13.14;63.98;100240.59;338494;29;909;-77
2022/05/07 00:33:20;;;;;;;327.67;125.90;;;;;;;13.12;64.00;100237.16;338451;29;1055;-77
2022/05/07 00:33:30;;;;;;;328.60;128.07;;;;;;;13.11;64.08;100235.47;339731;29;822;-77
2022/05/07 00:33:40;;;;;;;331.73;129.97;;;;;;;13.17;64.10;100240.50;338534;29;1079;-77
2022/05/07 00:33:51;;;;;;;330.93;130.63;;;;;;;13.17;64.15;100240.50;338355;29;1011;-76
2022/05/07 00:34:01;;;;;;;330.77;130.63;;;;;;;13.19;64.08;100238.66;336088;29;1300;-76
2022/05/07 00:34:12;;;;;;;328.87;129.60;;;;;;;13.19;64.00;100233.41;338404;29;1171;-76
2022/05/07 00:34:24;;;;;;;329.17;129.77;;;;;;;13.24;63.84;100241.97;341031;29;1335;-76
2022/05/07 00:34:35;;;;;;;326.42;128.20;;;;;;;13.25;63.87;100231.38;339628;29;1305;-76
2022/05/07 00:34:45;;;;;;;325.60;127.78;;;;;;;13.28;63.76;100238.28;336929;29;1536;-76
2022/05/07 00:34:55;;;;;;;324.77;126.73;;;;;;;13.30;64.02;100231.19;334742;29;1073;-76
2022/05/07 00:35:06;;;;;;;327.70;128.25;;;;;;;13.33;63.87;100236.31;337269;29;906;-76
2022/05/07 00:35:17;;;;;;;327.10;128.30;;;;;;;13.35;63.54;100237.09;336713;29;2656;-76
2022/05/07 00:35:27;;;;;;;328.30;130.80;;;;;;;13.28;63.77;100233.03;335688;29;1636;-76
2022/05/07 00:35:38;;;;;;;327.88;130.95;;;;;;;13.28;63.75;100239.13;338194;29;1237;-76
2022/05/07 00:35:48;;;;;;;327.17;129.97;;;;;;;13.27;63.92;100236.56;338429;29;1265;-76
2022/05/07 00:35:58;;;;;;;326.67;128.63;;;;;;;13.28;63.83;100239.13;337835;29;1272;-76
2022/05/07 00:36:09;;;;;;;325.93;129.30;;;;;;;13.25;63.88;100243.66;335843;29;898;-76
2022/05/07 00:36:19;;;;;;;327.37;129.30;;;;;;;13.24;63.74;100241.97;339721;29;860;-76
2022/05/07 00:36:30;;;;;;;326.50;127.93;;;;;;;13.24;63.88;100236.69;339735;29;861;-76
2022/05/07 00:36:40;;;;;;;328.37;128.50;;;;;;;13.26;63.89;100232.25;336979;29;1420;-76
2022/05/07 00:36:50;;;;;;;325.35;128.35;;;;;;;13.29;63.81;100237.38;336521;29;1472;-76
2022/05/07 00:37:01;;;;;;;324.30;129.67;;;;;;;13.31;64.13;100238.16;339796;29;1016;-76
2022/05/07 00:37:11;;;;;;;323.38;128.93;;;;;;;13.35;63.67;100234.47;339840;29;881;-76
2022/05/07 00:37:23;;;;;;;326.60;130.27;;;;;;;13.35;64.24;100239.75;340223;29;1542;-76
2022/05/07 00:37:33;;;;;;;324.88;129.23;;;;;;;13.33;63.86;100231.06;334567;29;863;-76
2022/05/07 00:37:44;;;;;;;326.23;130.47;;;;;;;13.39;63.78;100241.31;337175;29;935;-76
2022/05/07 00:37:54;;;;;;;327.45;131.13;;;;;;;13.37;63.93;100232.66;339581;29;1426;-76
2022/05/07 00:38:05;;;;;;;329.40;131.80;;;;;;;13.35;63.85;100229.22;337014;29;1345;-76
2022/05/07 00:38:15;;;;;;;329.33;131.85;;;;;;;13.38;64.04;100236.13;339742;29;865;-76
2022/05/07 00:38:26;;;;;;;327.63;130.73;;;;;;;13.38;63.72;100239.63;338137;29;2195;-76
2022/05/07 00:38:37;;;;;;;326.75;131.00;;;;;;;13.39;63.72;100230.81;336857;29;2053;-75
2022/05/07 00:38:48;;;;;;;323.65;128.50;;;;;;;13.42;63.69;100238.56;339692;29;894;-75
2022/05/07 00:38:59;;;;;;;325.98;129.27;;;;;;;13.43;63.60;100237.63;339093;29;2167;-75
2022/05/07 00:39:09;;;;;;;327.47;130.60;;;;;;;13.38;63.71;100236.97;337051;29;1690;-75
2022/05/07 00:39:20;;;;;;;328.13;129.88;;;;;;;13.37;63.76;100231.78;335805;29;854;-75
2022/05/07 00:39:30;;;;;;;328.83;129.57;;;;;;;13.36;63.61;100240.59;342330;28;1284;-75
2022/05/07 00:39:41;;;;;;;330.10;129.25;;;;;;;13.36;63.67;100235.34;340914;29;2065;-75
2022/05/07 00:39:51;;;;;;;331.00;131.90;;;;;;;13.35;63.75;100237.09;335741;29;4390;-75
2022/05/07 00:40:02;;;;;;;329.98;131.57;;;;;;;13.34;63.75;100243.28;336916;29;6020;-75
2022/05/07 00:40:12;;;;;;;330.60;131.52;;;;;;;13.30;64.02;100231.19;336917;29;2050;-75
2022/05/07 00:40:23;;;;;;;333.03;133.27;;;;;;;13.26;64.09;100235.72;336991;29;1699;-75
2022/05/07 00:40:33;;;;;;;332.73;132.23;;;;;;;13.26;63.98;100240.13;338213;29;3413;-75
2022/05/07 00:40:44;;;;;;;332.52;131.15;;;;;;;13.23;64.29;100235.84;334793;29;1230;-75
2022/05/07 00:40:55;;;;;;;332.80;131.13;;;;;;;13.20;64.30;100235.13;336998;29;1303;-75
2022/05/07 00:41:05;;;;;;;332.38;131.32;;;;;;;13.23;64.52;100240.25;337060;29;1281;-75
2022/05/07 00:41:15;;;;;;;328.80;130.02;;;;;;;13.26;64.44;100234.88;338362;29;878;-75
2022/05/07 00:41:26;;;;;;;327.47;129.77;;;;;;;13.24;64.12;100234.06;337130;29;966;-75
2022/05/07 00:41:39;;;;;;;328.95;129.32;;;;;;;13.11;64.37;100236.31;338490;29;901;-75
2022/05/07 00:41:49;;;;;;;329.27;129.00;;;;;;;13.06;64.62;100237.41;339671;29;1324;-76
2022/05/07 00:42:04;;;;;;;327.17;126.87;;;;;;;12.98;64.96;100241.25;338445;29;763;-76
2022/05/07 00:42:15;;;;;;;328.40;129.13;;;;;;;12.93;65.10;100231.84;340195;29;885;-76
2022/05/07 00:42:25;;;;;;;329.23;129.70;;;;;;;12.94;65.33;100234.41;337101;29;1459;-76
2022/05/07 00:42:36;;;;;;;328.77;130.90;;;;;;;12.97;65.22;100243.94;339831;29;901;-75
2022/05/07 00:42:47;;;;;;;326.78;129.88;;;;;;;13.00;65.34;100231.50;338440;29;859;-75
2022/05/07 00:42:57;;;;;;;328.07;129.53;;;;;;;13.02;65.24;100228.81;339820;29;990;-75
2022/05/07 00:43:08;;;;;;;331.13;131.90;;;;;;;13.07;65.22;100241.75;336911;29;1157;-75
2022/05/07 00:43:18;;;;;;;330.98;131.57;;;;;;;13.05;65.13;100240.97;338411;29;819;-75
2022/05/07 00:43:38;;;;;;;329.70;132.07;;;;;;;13.05;65.24;100235.72;338426;29;1313;-75
2022/05/07 00:43:48;;;;;;;326.13;129.20;;;;;;;13.05;65.10;100228.69;338294;29;1022;-75
2022/05/07 00:43:59;;;;;;;327.15;129.27;;;;;;;13.05;64.91;100235.72;338415;29;1328;-75
2022/05/07 00:44:09;;;;;;;328.03;129.27;;;;;;;13.03;64.99;100242.81;337068;29;1321;-75
2022/05/07 00:44:22;;;;;;;330.52;131.55;;;;;;;12.95;65.47;100230.00;337492;29;2099;-75
2022/05/07 00:44:33;;;;;;;331.30;133.00;;;;;;;12.92;65.62;100233.59;337103;29;1012;-75
2022/05/07 00:44:43;;;;;;;332.55;133.30;;;;;;;12.92;65.50;100230.97;338729;29;1952;-75
2022/05/07 00:44:54;;;;;;;332.83;132.70;;;;;;;12.96;65.35;100232.56;338093;29;1786;-75
2022/05/07 00:45:05;;;;;;;327.92;129.88;;;;;;;12.98;65.54;100233.38;335802;29;1257;-75
2022/05/07 00:45:15;;;;;;;325.33;129.05;;;;;;;13.02;65.39;100239.31;337202;29;866;-75
2022/05/07 00:45:25;;;;;;;326.43;131.70;;;;;;;12.95;64.84;100236.09;338924;29;1060;-75
2022/05/07 00:45:36;;;;;;;329.23;132.43;;;;;;;12.94;65.38;100239.66;339819;29;1353;-75
2022/05/07 00:45:46;;;;;;;329.25;132.05;;;;;;;12.94;65.42;100231.78;337610;29;1207;-75
2022/05/07 00:45:57;;;;;;;330.10;130.93;;;;;;;12.95;65.59;100230.84;338421;29;1435;-75
2022/05/07 00:46:07;;;;;;;330.95;130.30;;;;;;;12.99;65.23;100237.69;337145;29;828;-75
2022/05/07 00:46:18;;;;;;;328.83;126.80;;;;;;;13.04;65.54;100234.00;337197;29;854;-75
2022/05/07 00:46:28;;;;;;;326.77;127.03;;;;;;;13.07;65.37;100239.13;336179;29;1200;-75
2022/05/07 00:46:39;;;;;;;325.55;127.57;;;;;;;13.10;65.14;100239.00;335718;29;1363;-75
2022/05/07 00:46:49;;;;;;;327.27;128.47;;;;;;;12.97;65.25;100231.66;335860;29;1514;-75
2022/05/07 00:47:30;;;;;;;327.25;125.53;;;;;;;13.04;65.32;100239.25;338522;29;850;-75
2022/05/07 00:47:40;;;;;;;327.20;129.02;;;;;;;12.98;65.65;100235.13;338245;29;2116;-75
2022/05/07 00:47:50;;;;;;;328.00;129.23;;;;;;;12.93;65.22;100237.09;339308;28;1039;-75
2022/05/07 00:48:01;;;;;;;332.73;130.63;;;;;;;12.88;65.62;100239.91;337114;29;1261;-75
2022/05/07 00:48:14;;;;;;;334.02;130.10;;;;;;;12.80;65.86;100234.09;339570;29;1358;-75
2022/05/07 00:48:26;;;;;;;333.65;129.80;;;;;;;12.77;66.00;100236.84;338303;29;1293;-76
2022/05/07 00:48:36;;;;;;;331.52;128.32;;;;;;;12.72;66.20;100241.41;338442;29;877;-76
2022/05/07 00:48:47;;;;;;;334.50;129.83;;;;;;;12.70;66.25;100240.63;335889;29;1375;-75
2022/05/07 00:48:57;;;;;;;333.50;128.80;;;;;;;12.68;66.47;100238.97;335778;29;1094;-75
2022/05/07 00:49:07;;;;;;;333.97;130.90;;;;;;;12.68;66.37;100237.19;337383;29;3402;-76
2022/05/07 00:49:18;;;;;;;333.50;130.00;;;;;;;12.65;66.68;100242.56;338165;29;5695;-76
2022/05/07 00:49:28;;;;;;;340.05;133.38;;;;;;;12.60;66.69;100234.88;335546;29;1899;-76
2022/05/07 00:49:39;;;;;;;338.43;131.93;;;;;;;12.60;66.57;100236.66;337743;29;5983;-76
2022/05/07 00:49:51;;;;;;;336.50;131.00;;;;;;;12.58;66.78;100238.47;339402;29;2025;-76
2022/05/07 00:51:35;;;;;;;325.75;126.35;;;;;;;12.77;66.52;100234.22;338441;29;1016;-76
2022/05/07 00:51:46;;;;;;;324.70;126.80;;;;;;;12.81;66.23;100238.44;338344;29;1419;-76
2022/05/07 00:51:56;;;;;;;323.90;126.97;;;;;;;12.83;66.37;100233.97;338389;29;1311;-76
2022/05/07 00:52:07;;;;;;;321.50;126.67;;;;;;;12.81;66.27;100233.19;335752;29;1366;-76
2022/05/07 00:52:20;;;;;;;323.03;126.60;;;;;;;12.79;66.62;100232.38;338179;29;1518;-76
2022/05/07 00:52:30;;;;;;;326.05;127.70;;;;;;;12.82;65.95;100234.88;339639;29;1665;-76
2022/05/07 00:52:41;;;;;;;326.97;126.13;;;;;;;12.84;66.44;100232.19;337085;29;1201;-76
2022/05/07 00:52:51;;;;;;;329.02;126.75;;;;;;;12.83;66.28;100228.72;339794;29;1016;-76
2022/05/07 00:53:02;;;;;;;329.33;127.00;;;;;;;12.89;66.04;100235.50;341086;29;1321;-76